sensor_id;sensor_type;location;lat;lon;timestamp;P1;durP1;ratioP1;P2;durP2;ratioP2
12691;SDS011;6410;57.636;18.304;2022-08-05T00:00:15;8.65;;;7.97;;
12691;SDS011;6410;57.636;18.304;2022-08-05T00:02:45;8.05;;;7.55;;
12691;SDS011;6410;57.636;18.304;2022-08-05T00:05:18;7.50;;;7.10;;
12691;SDS011;6410;57.636;18.304;2022-08-05T00:08:06;7.80;;;7.32;;
12691;SDS011;6410;57.636;18.304;2022-08-05T00:10:55;10.25;;;7.68;;
12691;SDS011;6410;57.636;18.304;2022-08-05T00:13:29;8.30;;;7.60;;
12691;SDS011;6410;57.636;18.304;2022-08-05T00:16:06;8.30;;;7.57;;
12691;SDS011;6410;57.636;18.304;2022-08-05T00:18:38;8.10;;;7.45;;
12691;SDS011;6410;57.636;18.304;2022-08-05T00:21:09;7.85;;;7.32;;
12691;SDS011;6410;57.636;18.304;2022-08-05T00:23:40;7.75;;;7.20;;
12691;SDS011;6410;57.636;18.304;2022-08-05T00:26:19;8.18;;;7.68;;
12691;SDS011;6410;57.636;18.304;2022-08-05T00:28:49;9.57;;;7.72;;
12691;SDS011;6410;57.636;18.304;2022-08-05T00:31:17;8.43;;;7.72;;
12691;SDS011;6410;57.636;18.304;2022-08-05T00:34:06;7.75;;;7.35;;
12691;SDS011;6410;57.636;18.304;2022-08-05T00:36:54;7.55;;;7.15;;
12691;SDS011;6410;57.636;18.304;2022-08-05T00:39:38;7.97;;;7.38;;
12691;SDS011;6410;57.636;18.304;2022-08-05T00:42:30;8.35;;;7.53;;
12691;SDS011;6410;57.636;18.304;2022-08-05T00:45:02;8.10;;;7.60;;
12691;SDS011;6410;57.636;18.304;2022-08-05T00:47:34;8.93;;;8.10;;
12691;SDS011;6410;57.636;18.304;2022-08-05T00:50:22;8.68;;;7.90;;
12691;SDS011;6410;57.636;18.304;2022-08-05T00:52:51;8.18;;;7.68;;
12691;SDS011;6410;57.636;18.304;2022-08-05T00:55:21;8.20;;;7.60;;
12691;SDS011;6410;57.636;18.304;2022-08-05T00:58:08;8.40;;;7.85;;
12691;SDS011;6410;57.636;18.304;2022-08-05T01:00:38;8.57;;;7.90;;
12691;SDS011;6410;57.636;18.304;2022-08-05T01:03:07;7.82;;;7.32;;
12691;SDS011;6410;57.636;18.304;2022-08-05T01:05:48;8.45;;;7.80;;
12691;SDS011;6410;57.636;18.304;2022-08-05T01:08:20;7.65;;;7.15;;
12691;SDS011;6410;57.636;18.304;2022-08-05T01:11:10;8.52;;;7.72;;
12691;SDS011;6410;57.636;18.304;2022-08-05T01:13:53;7.85;;;7.25;;
12691;SDS011;6410;57.636;18.304;2022-08-05T01:16:33;7.63;;;7.13;;
12691;SDS011;6410;57.636;18.304;2022-08-05T01:19:11;7.43;;;6.93;;
12691;SDS011;6410;57.636;18.304;2022-08-05T01:22:22;7.70;;;7.25;;
12691;SDS011;6410;57.636;18.304;2022-08-05T01:25:02;8.20;;;7.20;;
12691;SDS011;6410;57.636;18.304;2022-08-05T01:27:51;7.85;;;7.35;;
12691;SDS011;6410;57.636;18.304;2022-08-05T01:30:37;7.97;;;7.47;;
12691;SDS011;6410;57.636;18.304;2022-08-05T01:33:20;7.57;;;6.97;;
12691;SDS011;6410;57.636;18.304;2022-08-05T01:36:02;8.20;;;7.60;;
12691;SDS011;6410;57.636;18.304;2022-08-05T01:38:41;8.85;;;8.00;;
12691;SDS011;6410;57.636;18.304;2022-08-05T01:41:15;8.35;;;7.55;;
12691;SDS011;6410;57.636;18.304;2022-08-05T01:43:48;8.27;;;7.68;;
12691;SDS011;6410;57.636;18.304;2022-08-05T01:46:19;7.50;;;6.97;;
12691;SDS011;6410;57.636;18.304;2022-08-05T01:49:09;7.88;;;7.38;;
12691;SDS011;6410;57.636;18.304;2022-08-05T01:51:51;8.13;;;7.40;;
12691;SDS011;6410;57.636;18.304;2022-08-05T01:54:25;11.48;;;7.68;;
12691;SDS011;6410;57.636;18.304;2022-08-05T01:56:57;8.23;;;7.53;;
12691;SDS011;6410;57.636;18.304;2022-08-05T01:59:49;8.82;;;7.55;;
12691;SDS011;6410;57.636;18.304;2022-08-05T02:02:24;8.15;;;7.53;;
12691;SDS011;6410;57.636;18.304;2022-08-05T02:04:57;10.18;;;7.10;;
12691;SDS011;6410;57.636;18.304;2022-08-05T02:07:37;8.23;;;7.50;;
12691;SDS011;6410;57.636;18.304;2022-08-05T02:10:25;8.38;;;7.43;;
12691;SDS011;6410;57.636;18.304;2022-08-05T02:12:55;9.73;;;8.05;;
12691;SDS011;6410;57.636;18.304;2022-08-05T02:15:33;8.00;;;7.35;;
12691;SDS011;6410;57.636;18.304;2022-08-05T02:18:06;8.30;;;7.60;;
12691;SDS011;6410;57.636;18.304;2022-08-05T02:20:59;8.63;;;7.70;;
12691;SDS011;6410;57.636;18.304;2022-08-05T02:23:32;9.05;;;7.97;;
12691;SDS011;6410;57.636;18.304;2022-08-05T02:26:05;7.88;;;7.35;;
12691;SDS011;6410;57.636;18.304;2022-08-05T02:28:39;8.93;;;8.10;;
12691;SDS011;6410;57.636;18.304;2022-08-05T02:31:13;8.65;;;7.95;;
12691;SDS011;6410;57.636;18.304;2022-08-05T02:33:47;9.32;;;8.45;;
12691;SDS011;6410;57.636;18.304;2022-08-05T02:36:23;8.15;;;7.55;;
12691;SDS011;6410;57.636;18.304;2022-08-05T02:38:56;8.82;;;8.15;;
12691;SDS011;6410;57.636;18.304;2022-08-05T02:41:27;8.45;;;7.82;;
12691;SDS011;6410;57.636;18.304;2022-08-05T02:44:17;8.55;;;7.65;;
12691;SDS011;6410;57.636;18.304;2022-08-05T02:46:48;8.55;;;7.88;;
12691;SDS011;6410;57.636;18.304;2022-08-05T02:49:26;9.63;;;8.25;;
12691;SDS011;6410;57.636;18.304;2022-08-05T02:52:02;8.45;;;7.65;;
12691;SDS011;6410;57.636;18.304;2022-08-05T02:54:34;8.60;;;7.90;;
12691;SDS011;6410;57.636;18.304;2022-08-05T02:57:09;9.00;;;7.95;;
12691;SDS011;6410;57.636;18.304;2022-08-05T02:59:58;9.30;;;8.50;;
12691;SDS011;6410;57.636;18.304;2022-08-05T03:02:28;11.65;;;8.00;;
12691;SDS011;6410;57.636;18.304;2022-08-05T03:05:01;8.50;;;7.78;;
12691;SDS011;6410;57.636;18.304;2022-08-05T03:07:31;8.68;;;7.88;;
12691;SDS011;6410;57.636;18.304;2022-08-05T03:10:21;8.32;;;7.53;;
12691;SDS011;6410;57.636;18.304;2022-08-05T03:12:51;8.60;;;7.85;;
12691;SDS011;6410;57.636;18.304;2022-08-05T03:15:20;8.40;;;7.60;;
12691;SDS011;6410;57.636;18.304;2022-08-05T03:17:52;8.70;;;7.57;;
12691;SDS011;6410;57.636;18.304;2022-08-05T03:20:24;8.48;;;7.80;;
12691;SDS011;6410;57.636;18.304;2022-08-05T03:22:53;8.65;;;7.90;;
12691;SDS011;6410;57.636;18.304;2022-08-05T03:25:23;9.43;;;8.50;;
12691;SDS011;6410;57.636;18.304;2022-08-05T03:28:12;8.75;;;7.85;;
12691;SDS011;6410;57.636;18.304;2022-08-05T03:30:45;8.77;;;8.00;;
12691;SDS011;6410;57.636;18.304;2022-08-05T03:33:17;9.13;;;8.23;;
12691;SDS011;6410;57.636;18.304;2022-08-05T03:35:47;8.93;;;7.97;;
12691;SDS011;6410;57.636;18.304;2022-08-05T03:38:17;8.77;;;7.97;;
12691;SDS011;6410;57.636;18.304;2022-08-05T03:40:58;9.55;;;8.63;;
12691;SDS011;6410;57.636;18.304;2022-08-05T03:43:33;10.93;;;9.93;;
12691;SDS011;6410;57.636;18.304;2022-08-05T03:46:22;9.90;;;8.75;;
12691;SDS011;6410;57.636;18.304;2022-08-05T03:48:56;11.10;;;9.35;;
12691;SDS011;6410;57.636;18.304;2022-08-05T03:51:28;11.65;;;9.35;;
12691;SDS011;6410;57.636;18.304;2022-08-05T03:54:20;12.60;;;9.50;;
12691;SDS011;6410;57.636;18.304;2022-08-05T03:57:17;10.57;;;9.55;;
12691;SDS011;6410;57.636;18.304;2022-08-05T04:00:08;11.00;;;9.90;;
12691;SDS011;6410;57.636;18.304;2022-08-05T04:02:41;10.93;;;10.02;;
12691;SDS011;6410;57.636;18.304;2022-08-05T04:05:24;11.13;;;9.95;;
12691;SDS011;6410;57.636;18.304;2022-08-05T04:08:00;12.38;;;11.07;;
12691;SDS011;6410;57.636;18.304;2022-08-05T04:10:40;12.68;;;11.57;;
12691;SDS011;6410;57.636;18.304;2022-08-05T04:13:10;11.50;;;10.55;;
12691;SDS011;6410;57.636;18.304;2022-08-05T04:15:38;10.82;;;9.82;;
12691;SDS011;6410;57.636;18.304;2022-08-05T04:18:27;10.73;;;9.75;;
12691;SDS011;6410;57.636;18.304;2022-08-05T04:20:57;10.50;;;9.45;;
12691;SDS011;6410;57.636;18.304;2022-08-05T04:23:26;10.73;;;9.57;;
12691;SDS011;6410;57.636;18.304;2022-08-05T04:26:15;10.77;;;9.73;;
12691;SDS011;6410;57.636;18.304;2022-08-05T04:28:44;10.88;;;9.98;;
12691;SDS011;6410;57.636;18.304;2022-08-05T04:31:17;10.18;;;9.25;;
12691;SDS011;6410;57.636;18.304;2022-08-05T04:33:45;10.05;;;9.02;;
12691;SDS011;6410;57.636;18.304;2022-08-05T04:36:36;10.52;;;9.45;;
12691;SDS011;6410;57.636;18.304;2022-08-05T04:39:15;9.80;;;8.90;;
12691;SDS011;6410;57.636;18.304;2022-08-05T04:41:44;11.85;;;9.38;;
12691;SDS011;6410;57.636;18.304;2022-08-05T04:44:13;9.95;;;9.15;;
12691;SDS011;6410;57.636;18.304;2022-08-05T04:46:55;10.43;;;9.63;;
12691;SDS011;6410;57.636;18.304;2022-08-05T04:49:24;11.93;;;10.82;;
12691;SDS011;6410;57.636;18.304;2022-08-05T04:52:13;12.38;;;11.25;;
12691;SDS011;6410;57.636;18.304;2022-08-05T04:54:43;13.00;;;11.80;;
12691;SDS011;6410;57.636;18.304;2022-08-05T04:57:14;11.00;;;10.05;;
12691;SDS011;6410;57.636;18.304;2022-08-05T04:59:43;12.13;;;10.93;;
12691;SDS011;6410;57.636;18.304;2022-08-05T05:02:13;11.73;;;10.70;;
12691;SDS011;6410;57.636;18.304;2022-08-05T05:05:02;12.60;;;11.50;;
12691;SDS011;6410;57.636;18.304;2022-08-05T05:07:52;12.75;;;11.10;;
12691;SDS011;6410;57.636;18.304;2022-08-05T05:10:26;11.88;;;10.82;;
12691;SDS011;6410;57.636;18.304;2022-08-05T05:12:55;11.65;;;10.55;;
12691;SDS011;6410;57.636;18.304;2022-08-05T05:15:24;11.45;;;10.40;;
12691;SDS011;6410;57.636;18.304;2022-08-05T05:18:13;11.18;;;10.18;;
12691;SDS011;6410;57.636;18.304;2022-08-05T05:20:59;10.95;;;10.05;;
12691;SDS011;6410;57.636;18.304;2022-08-05T05:23:30;10.60;;;9.80;;
12691;SDS011;6410;57.636;18.304;2022-08-05T05:26:18;10.95;;;10.00;;
12691;SDS011;6410;57.636;18.304;2022-08-05T05:28:57;10.65;;;9.75;;
12691;SDS011;6410;57.636;18.304;2022-08-05T05:31:27;10.80;;;9.80;;
12691;SDS011;6410;57.636;18.304;2022-08-05T05:33:56;11.32;;;10.23;;
12691;SDS011;6410;57.636;18.304;2022-08-05T05:36:28;10.23;;;9.23;;
12691;SDS011;6410;57.636;18.304;2022-08-05T05:38:58;10.65;;;9.68;;
12691;SDS011;6410;57.636;18.304;2022-08-05T05:41:29;10.05;;;9.05;;
12691;SDS011;6410;57.636;18.304;2022-08-05T05:44:06;9.65;;;8.57;;
12691;SDS011;6410;57.636;18.304;2022-08-05T05:46:54;9.82;;;8.85;;
12691;SDS011;6410;57.636;18.304;2022-08-05T05:49:23;9.20;;;8.50;;
12691;SDS011;6410;57.636;18.304;2022-08-05T05:51:51;9.85;;;9.07;;
12691;SDS011;6410;57.636;18.304;2022-08-05T05:54:21;8.70;;;8.05;;
12691;SDS011;6410;57.636;18.304;2022-08-05T05:57:10;9.27;;;8.18;;
12691;SDS011;6410;57.636;18.304;2022-08-05T05:59:44;8.48;;;7.88;;
12691;SDS011;6410;57.636;18.304;2022-08-05T06:02:14;8.48;;;7.90;;
12691;SDS011;6410;57.636;18.304;2022-08-05T06:05:02;8.65;;;8.05;;
12691;SDS011;6410;57.636;18.304;2022-08-05T06:07:42;9.32;;;8.63;;
12691;SDS011;6410;57.636;18.304;2022-08-05T06:10:30;8.73;;;8.02;;
12691;SDS011;6410;57.636;18.304;2022-08-05T06:13:18;8.88;;;8.18;;
12691;SDS011;6410;57.636;18.304;2022-08-05T06:15:48;9.20;;;8.48;;
12691;SDS011;6410;57.636;18.304;2022-08-05T06:18:37;9.50;;;8.70;;
12691;SDS011;6410;57.636;18.304;2022-08-05T06:21:05;9.77;;;8.90;;
12691;SDS011;6410;57.636;18.304;2022-08-05T06:23:43;8.98;;;8.27;;
12691;SDS011;6410;57.636;18.304;2022-08-05T06:26:16;8.85;;;8.05;;
12691;SDS011;6410;57.636;18.304;2022-08-05T06:28:52;9.52;;;7.90;;
12691;SDS011;6410;57.636;18.304;2022-08-05T06:31:20;8.90;;;8.10;;
12691;SDS011;6410;57.636;18.304;2022-08-05T06:33:57;8.52;;;7.82;;
12691;SDS011;6410;57.636;18.304;2022-08-05T06:36:33;8.48;;;7.78;;
12691;SDS011;6410;57.636;18.304;2022-08-05T06:39:22;8.77;;;7.95;;
12691;SDS011;6410;57.636;18.304;2022-08-05T06:41:55;8.43;;;7.63;;
12691;SDS011;6410;57.636;18.304;2022-08-05T06:44:24;8.45;;;7.85;;
12691;SDS011;6410;57.636;18.304;2022-08-05T06:46:53;8.38;;;7.78;;
12691;SDS011;6410;57.636;18.304;2022-08-05T06:49:22;8.52;;;7.88;;
12691;SDS011;6410;57.636;18.304;2022-08-05T06:52:11;9.02;;;7.93;;
12691;SDS011;6410;57.636;18.304;2022-08-05T06:55:00;8.77;;;7.70;;
12691;SDS011;6410;57.636;18.304;2022-08-05T06:57:29;8.73;;;7.93;;
12691;SDS011;6410;57.636;18.304;2022-08-05T07:00:18;8.50;;;7.90;;
12691;SDS011;6410;57.636;18.304;2022-08-05T07:02:50;8.27;;;7.68;;
12691;SDS011;6410;57.636;18.304;2022-08-05T07:05:19;7.72;;;6.85;;
12691;SDS011;6410;57.636;18.304;2022-08-05T07:08:03;8.55;;;7.93;;
12691;SDS011;6410;57.636;18.304;2022-08-05T07:10:36;7.97;;;7.30;;
12691;SDS011;6410;57.636;18.304;2022-08-05T07:13:20;8.15;;;7.53;;
12691;SDS011;6410;57.636;18.304;2022-08-05T07:16:25;8.35;;;7.55;;
12691;SDS011;6410;57.636;18.304;2022-08-05T07:19:31;8.50;;;7.80;;
12691;SDS011;6410;57.636;18.304;2022-08-05T07:22:20;7.50;;;7.00;;
12691;SDS011;6410;57.636;18.304;2022-08-05T07:24:55;7.40;;;6.97;;
12691;SDS011;6410;57.636;18.304;2022-08-05T07:27:44;7.25;;;6.85;;
12691;SDS011;6410;57.636;18.304;2022-08-05T07:30:29;7.35;;;6.95;;
12691;SDS011;6410;57.636;18.304;2022-08-05T07:33:00;7.75;;;7.10;;
12691;SDS011;6410;57.636;18.304;2022-08-05T07:35:35;7.55;;;7.07;;
12691;SDS011;6410;57.636;18.304;2022-08-05T07:38:23;7.57;;;6.97;;
12691;SDS011;6410;57.636;18.304;2022-08-05T07:41:00;7.63;;;7.03;;
12691;SDS011;6410;57.636;18.304;2022-08-05T07:43:49;7.30;;;6.90;;
12691;SDS011;6410;57.636;18.304;2022-08-05T07:46:23;7.78;;;7.05;;
12691;SDS011;6410;57.636;18.304;2022-08-05T07:48:53;7.90;;;7.35;;
12691;SDS011;6410;57.636;18.304;2022-08-05T07:51:31;8.35;;;7.65;;
12691;SDS011;6410;57.636;18.304;2022-08-05T07:54:06;7.40;;;6.90;;
12691;SDS011;6410;57.636;18.304;2022-08-05T07:56:37;8.30;;;7.78;;
12691;SDS011;6410;57.636;18.304;2022-08-05T07:59:26;7.25;;;6.85;;
12691;SDS011;6410;57.636;18.304;2022-08-05T08:02:07;7.03;;;6.63;;
12691;SDS011;6410;57.636;18.304;2022-08-05T08:04:43;6.90;;;6.50;;
12691;SDS011;6410;57.636;18.304;2022-08-05T08:07:13;7.47;;;6.97;;
12691;SDS011;6410;57.636;18.304;2022-08-05T08:09:43;7.55;;;7.05;;
12691;SDS011;6410;57.636;18.304;2022-08-05T08:12:13;7.45;;;7.05;;
12691;SDS011;6410;57.636;18.304;2022-08-05T08:15:02;7.53;;;7.03;;
12691;SDS011;6410;57.636;18.304;2022-08-05T08:17:41;7.55;;;7.15;;
12691;SDS011;6410;57.636;18.304;2022-08-05T08:20:18;7.35;;;6.95;;
12691;SDS011;6410;57.636;18.304;2022-08-05T08:23:07;7.50;;;7.00;;
12691;SDS011;6410;57.636;18.304;2022-08-05T08:25:55;7.53;;;7.10;;
12691;SDS011;6410;57.636;18.304;2022-08-05T08:28:26;7.28;;;6.88;;
12691;SDS011;6410;57.636;18.304;2022-08-05T08:31:14;7.47;;;7.07;;
12691;SDS011;6410;57.636;18.304;2022-08-05T08:33:44;7.70;;;7.10;;
12691;SDS011;6410;57.636;18.304;2022-08-05T08:36:18;7.53;;;6.97;;
12691;SDS011;6410;57.636;18.304;2022-08-05T08:39:07;8.20;;;7.70;;
12691;SDS011;6410;57.636;18.304;2022-08-05T08:41:41;8.18;;;7.68;;
12691;SDS011;6410;57.636;18.304;2022-08-05T08:44:23;7.95;;;7.47;;
12691;SDS011;6410;57.636;18.304;2022-08-05T08:47:15;7.85;;;7.43;;
12691;SDS011;6410;57.636;18.304;2022-08-05T08:50:10;7.47;;;7.07;;
12691;SDS011;6410;57.636;18.304;2022-08-05T08:52:59;9.90;;;7.53;;
12691;SDS011;6410;57.636;18.304;2022-08-05T08:55:38;8.40;;;7.80;;
12691;SDS011;6410;57.636;18.304;2022-08-05T08:58:26;8.95;;;8.35;;
12691;SDS011;6410;57.636;18.304;2022-08-05T09:01:09;8.60;;;8.10;;
12691;SDS011;6410;57.636;18.304;2022-08-05T09:03:42;8.80;;;8.15;;
12691;SDS011;6410;57.636;18.304;2022-08-05T09:06:14;8.23;;;7.82;;
12691;SDS011;6410;57.636;18.304;2022-08-05T09:08:53;8.57;;;7.88;;
12691;SDS011;6410;57.636;18.304;2022-08-05T09:11:22;8.23;;;7.72;;
12691;SDS011;6410;57.636;18.304;2022-08-05T09:14:11;8.68;;;8.15;;
12691;SDS011;6410;57.636;18.304;2022-08-05T09:16:59;8.70;;;8.20;;
12691;SDS011;6410;57.636;18.304;2022-08-05T09:19:29;9.18;;;8.65;;
12691;SDS011;6410;57.636;18.304;2022-08-05T09:22:20;9.48;;;8.88;;
12691;SDS011;6410;57.636;18.304;2022-08-05T09:24:58;8.63;;;8.00;;
12691;SDS011;6410;57.636;18.304;2022-08-05T09:27:47;8.95;;;8.35;;
12691;SDS011;6410;57.636;18.304;2022-08-05T09:30:32;8.50;;;7.90;;
12691;SDS011;6410;57.636;18.304;2022-08-05T09:33:04;9.70;;;8.70;;
12691;SDS011;6410;57.636;18.304;2022-08-05T09:35:33;8.45;;;7.95;;
12691;SDS011;6410;57.636;18.304;2022-08-05T09:38:05;9.35;;;8.70;;
12691;SDS011;6410;57.636;18.304;2022-08-05T09:40:43;9.35;;;8.55;;
12691;SDS011;6410;57.636;18.304;2022-08-05T09:43:26;9.85;;;9.10;;
12691;SDS011;6410;57.636;18.304;2022-08-05T09:46:21;8.93;;;8.18;;
12691;SDS011;6410;57.636;18.304;2022-08-05T09:48:53;9.55;;;8.80;;
12691;SDS011;6410;57.636;18.304;2022-08-05T09:51:42;8.75;;;8.15;;
12691;SDS011;6410;57.636;18.304;2022-08-05T09:54:17;8.48;;;7.65;;
12691;SDS011;6410;57.636;18.304;2022-08-05T09:56:57;8.63;;;7.82;;
12691;SDS011;6410;57.636;18.304;2022-08-05T09:59:27;8.13;;;7.32;;
12691;SDS011;6410;57.636;18.304;2022-08-05T10:02:02;7.68;;;7.10;;
12691;SDS011;6410;57.636;18.304;2022-08-05T10:04:34;9.63;;;7.85;;
12691;SDS011;6410;57.636;18.304;2022-08-05T10:07:06;7.43;;;6.82;;
12691;SDS011;6410;57.636;18.304;2022-08-05T10:09:56;8.18;;;7.47;;
12691;SDS011;6410;57.636;18.304;2022-08-05T10:12:45;8.32;;;7.70;;
12691;SDS011;6410;57.636;18.304;2022-08-05T10:15:19;6.68;;;6.28;;
12691;SDS011;6410;57.636;18.304;2022-08-05T10:18:01;7.40;;;6.80;;
12691;SDS011;6410;57.636;18.304;2022-08-05T10:20:36;7.03;;;6.43;;
12691;SDS011;6410;57.636;18.304;2022-08-05T10:23:06;7.00;;;6.30;;
12691;SDS011;6410;57.636;18.304;2022-08-05T10:25:56;7.10;;;6.60;;
12691;SDS011;6410;57.636;18.304;2022-08-05T10:28:25;7.03;;;6.47;;
12691;SDS011;6410;57.636;18.304;2022-08-05T10:30:56;6.15;;;5.65;;
12691;SDS011;6410;57.636;18.304;2022-08-05T10:33:45;6.22;;;5.82;;
12691;SDS011;6410;57.636;18.304;2022-08-05T10:36:19;6.65;;;6.15;;
12691;SDS011;6410;57.636;18.304;2022-08-05T10:38:53;5.75;;;5.38;;
12691;SDS011;6410;57.636;18.304;2022-08-05T10:41:39;6.68;;;6.07;;
12691;SDS011;6410;57.636;18.304;2022-08-05T10:44:15;6.32;;;5.85;;
12691;SDS011;6410;57.636;18.304;2022-08-05T10:46:46;5.78;;;5.28;;
12691;SDS011;6410;57.636;18.304;2022-08-05T10:49:20;6.35;;;5.70;;
12691;SDS011;6410;57.636;18.304;2022-08-05T10:51:53;6.63;;;6.20;;
12691;SDS011;6410;57.636;18.304;2022-08-05T10:54:46;6.38;;;5.88;;
12691;SDS011;6410;57.636;18.304;2022-08-05T10:57:25;7.13;;;6.25;;
12691;SDS011;6410;57.636;18.304;2022-08-05T11:00:11;7.20;;;6.50;;
12691;SDS011;6410;57.636;18.304;2022-08-05T11:15:19;5.93;;;5.43;;
12691;SDS011;6410;57.636;18.304;2022-08-05T11:18:22;5.50;;;4.88;;
12691;SDS011;6410;57.636;18.304;2022-08-05T11:20:58;6.45;;;5.53;;
12691;SDS011;6410;57.636;18.304;2022-08-05T11:23:33;5.38;;;4.88;;
12691;SDS011;6410;57.636;18.304;2022-08-05T11:26:23;6.50;;;5.78;;
12691;SDS011;6410;57.636;18.304;2022-08-05T11:28:57;6.20;;;5.65;;
12691;SDS011;6410;57.636;18.304;2022-08-05T11:31:40;6.25;;;5.65;;
12691;SDS011;6410;57.636;18.304;2022-08-05T11:34:36;6.40;;;5.60;;
12691;SDS011;6410;57.636;18.304;2022-08-05T11:37:39;8.15;;;5.50;;
12691;SDS011;6410;57.636;18.304;2022-08-05T11:43:37;11.02;;;4.70;;
12691;SDS011;6410;57.636;18.304;2022-08-05T11:46:30;6.78;;;4.80;;
12691;SDS011;6410;57.636;18.304;2022-08-05T11:49:02;4.65;;;4.22;;
12691;SDS011;6410;57.636;18.304;2022-08-05T11:51:33;7.82;;;5.47;;
12691;SDS011;6410;57.636;18.304;2022-08-05T11:54:19;7.43;;;4.57;;
12691;SDS011;6410;57.636;18.304;2022-08-05T11:57:00;5.40;;;4.43;;
12691;SDS011;6410;57.636;18.304;2022-08-05T11:59:50;5.22;;;4.40;;
12691;SDS011;6410;57.636;18.304;2022-08-05T12:02:23;6.18;;;4.07;;
12691;SDS011;6410;57.636;18.304;2022-08-05T12:04:59;5.38;;;3.92;;
12691;SDS011;6410;57.636;18.304;2022-08-05T12:07:43;4.38;;;3.97;;
12691;SDS011;6410;57.636;18.304;2022-08-05T12:10:33;3.85;;;3.45;;
12691;SDS011;6410;57.636;18.304;2022-08-05T12:13:12;6.63;;;3.38;;
12691;SDS011;6410;57.636;18.304;2022-08-05T12:15:52;3.50;;;3.20;;
12691;SDS011;6410;57.636;18.304;2022-08-05T12:18:26;3.75;;;3.40;;
12691;SDS011;6410;57.636;18.304;2022-08-05T12:21:08;3.25;;;3.05;;
12691;SDS011;6410;57.636;18.304;2022-08-05T12:23:50;3.72;;;3.42;;
12691;SDS011;6410;57.636;18.304;2022-08-05T12:26:19;3.13;;;2.92;;
12691;SDS011;6410;57.636;18.304;2022-08-05T12:28:49;3.45;;;3.15;;
12691;SDS011;6410;57.636;18.304;2022-08-05T12:31:17;3.30;;;2.85;;
12691;SDS011;6410;57.636;18.304;2022-08-05T12:34:06;3.83;;;2.90;;
12691;SDS011;6410;57.636;18.304;2022-08-05T12:36:48;3.00;;;2.80;;
12691;SDS011;6410;57.636;18.304;2022-08-05T12:39:18;3.17;;;2.88;;
12691;SDS011;6410;57.636;18.304;2022-08-05T12:41:49;2.97;;;2.63;;
12691;SDS011;6410;57.636;18.304;2022-08-05T12:44:23;2.83;;;2.60;;
12691;SDS011;6410;57.636;18.304;2022-08-05T12:46:59;2.83;;;2.63;;
12691;SDS011;6410;57.636;18.304;2022-08-05T12:49:39;3.08;;;2.85;;
12691;SDS011;6410;57.636;18.304;2022-08-05T12:52:31;2.70;;;2.50;;
12691;SDS011;6410;57.636;18.304;2022-08-05T12:55:16;3.78;;;3.47;;
12691;SDS011;6410;57.636;18.304;2022-08-05T12:57:49;3.05;;;2.85;;
12691;SDS011;6410;57.636;18.304;2022-08-05T13:00:40;2.88;;;2.67;;
12691;SDS011;6410;57.636;18.304;2022-08-05T13:03:30;2.83;;;2.63;;
12691;SDS011;6410;57.636;18.304;2022-08-05T13:05:58;2.85;;;2.50;;
12691;SDS011;6410;57.636;18.304;2022-08-05T13:08:29;2.70;;;2.50;;
12691;SDS011;6410;57.636;18.304;2022-08-05T13:10:58;3.38;;;2.67;;
12691;SDS011;6410;57.636;18.304;2022-08-05T13:13:29;2.70;;;2.50;;
12691;SDS011;6410;57.636;18.304;2022-08-05T13:16:18;2.95;;;2.75;;
12691;SDS011;6410;57.636;18.304;2022-08-05T13:18:53;2.67;;;2.47;;
12691;SDS011;6410;57.636;18.304;2022-08-05T13:21:24;2.50;;;2.40;;
12691;SDS011;6410;57.636;18.304;2022-08-05T13:24:14;3.08;;;2.70;;
12691;SDS011;6410;57.636;18.304;2022-08-05T13:27:03;2.97;;;2.78;;
12691;SDS011;6410;57.636;18.304;2022-08-05T13:29:36;2.60;;;2.47;;
12691;SDS011;6410;57.636;18.304;2022-08-05T13:32:25;2.40;;;2.20;;
12691;SDS011;6410;57.636;18.304;2022-08-05T13:35:00;2.50;;;2.30;;
12691;SDS011;6410;57.636;18.304;2022-08-05T13:37:29;2.22;;;2.10;;
12691;SDS011;6410;57.636;18.304;2022-08-05T13:40:01;2.60;;;2.30;;
12691;SDS011;6410;57.636;18.304;2022-08-05T13:42:50;2.75;;;2.35;;
12691;SDS011;6410;57.636;18.304;2022-08-05T13:45:21;2.08;;;1.88;;
12691;SDS011;6410;57.636;18.304;2022-08-05T13:47:59;2.58;;;2.38;;
12691;SDS011;6410;57.636;18.304;2022-08-05T13:50:47;2.58;;;2.38;;
12691;SDS011;6410;57.636;18.304;2022-08-05T13:53:18;4.15;;;2.60;;
12691;SDS011;6410;57.636;18.304;2022-08-05T13:55:48;3.75;;;2.78;;
12691;SDS011;6410;57.636;18.304;2022-08-05T13:58:27;2.42;;;2.33;;
12691;SDS011;6410;57.636;18.304;2022-08-05T14:00:56;2.95;;;2.65;;
12691;SDS011;6410;57.636;18.304;2022-08-05T14:03:25;3.08;;;2.88;;
12691;SDS011;6410;57.636;18.304;2022-08-05T14:05:54;4.30;;;3.45;;
12691;SDS011;6410;57.636;18.304;2022-08-05T14:08:41;4.30;;;3.35;;
12691;SDS011;6410;57.636;18.304;2022-08-05T14:11:11;4.60;;;4.05;;
12691;SDS011;6410;57.636;18.304;2022-08-05T14:13:47;3.90;;;3.50;;
12691;SDS011;6410;57.636;18.304;2022-08-05T14:16:22;3.88;;;3.58;;
12691;SDS011;6410;57.636;18.304;2022-08-05T14:18:50;4.25;;;3.72;;
12691;SDS011;6410;57.636;18.304;2022-08-05T14:21:19;3.80;;;3.47;;
12691;SDS011;6410;57.636;18.304;2022-08-05T14:24:07;3.70;;;3.28;;
12691;SDS011;6410;57.636;18.304;2022-08-05T14:26:37;6.13;;;3.60;;
12691;SDS011;6410;57.636;18.304;2022-08-05T14:29:26;4.88;;;3.40;;
12691;SDS011;6410;57.636;18.304;2022-08-05T14:31:56;5.53;;;3.95;;
12691;SDS011;6410;57.636;18.304;2022-08-05T14:34:39;5.13;;;3.90;;
12691;SDS011;6410;57.636;18.304;2022-08-05T14:37:07;4.25;;;3.85;;
12691;SDS011;6410;57.636;18.304;2022-08-05T14:39:39;4.60;;;3.83;;
12691;SDS011;6410;57.636;18.304;2022-08-05T14:42:23;4.93;;;4.40;;
12691;SDS011;6410;57.636;18.304;2022-08-05T14:44:52;4.15;;;3.78;;
12691;SDS011;6410;57.636;18.304;2022-08-05T14:47:22;5.55;;;4.05;;
12691;SDS011;6410;57.636;18.304;2022-08-05T14:50:10;5.63;;;5.00;;
12691;SDS011;6410;57.636;18.304;2022-08-05T14:52:45;4.30;;;3.90;;
12691;SDS011;6410;57.636;18.304;2022-08-05T14:55:24;4.40;;;3.95;;
12691;SDS011;6410;57.636;18.304;2022-08-05T14:58:07;4.20;;;3.80;;
12691;SDS011;6410;57.636;18.304;2022-08-05T15:00:39;3.88;;;3.58;;
12691;SDS011;6410;57.636;18.304;2022-08-05T15:03:25;4.03;;;3.75;;
12691;SDS011;6410;57.636;18.304;2022-08-05T15:06:04;5.13;;;4.38;;
12691;SDS011;6410;57.636;18.304;2022-08-05T15:08:42;4.28;;;3.95;;
12691;SDS011;6410;57.636;18.304;2022-08-05T15:11:29;4.43;;;3.85;;
12691;SDS011;6410;57.636;18.304;2022-08-05T15:14:19;4.30;;;3.90;;
12691;SDS011;6410;57.636;18.304;2022-08-05T15:17:02;5.88;;;4.65;;
12691;SDS011;6410;57.636;18.304;2022-08-05T15:19:39;4.35;;;4.00;;
12691;SDS011;6410;57.636;18.304;2022-08-05T15:22:14;6.55;;;4.85;;
12691;SDS011;6410;57.636;18.304;2022-08-05T15:24:43;4.13;;;3.83;;
12691;SDS011;6410;57.636;18.304;2022-08-05T15:27:11;4.60;;;4.20;;
12691;SDS011;6410;57.636;18.304;2022-08-05T15:29:41;4.65;;;4.18;;
12691;SDS011;6410;57.636;18.304;2022-08-05T15:32:09;4.68;;;4.20;;
12691;SDS011;6410;57.636;18.304;2022-08-05T15:34:38;4.47;;;4.13;;
12691;SDS011;6410;57.636;18.304;2022-08-05T15:37:07;4.28;;;3.97;;
12691;SDS011;6410;57.636;18.304;2022-08-05T15:39:42;4.50;;;3.95;;
12691;SDS011;6410;57.636;18.304;2022-08-05T15:42:31;4.28;;;3.88;;
12691;SDS011;6410;57.636;18.304;2022-08-05T15:45:21;4.57;;;3.88;;
12691;SDS011;6410;57.636;18.304;2022-08-05T15:48:04;4.03;;;3.72;;
12691;SDS011;6410;57.636;18.304;2022-08-05T15:50:33;4.82;;;4.03;;
12691;SDS011;6410;57.636;18.304;2022-08-05T15:53:03;4.55;;;4.15;;
12691;SDS011;6410;57.636;18.304;2022-08-05T15:55:34;4.18;;;3.88;;
12691;SDS011;6410;57.636;18.304;2022-08-05T15:58:22;4.00;;;3.80;;
12691;SDS011;6410;57.636;18.304;2022-08-05T16:00:53;4.80;;;3.63;;
12691;SDS011;6410;57.636;18.304;2022-08-05T16:03:42;4.50;;;4.20;;
12691;SDS011;6410;57.636;18.304;2022-08-05T16:06:15;4.93;;;4.60;;